Time;durP1;ratioP1;P1;durP2;ratioP2;P2;SDS_P1;SDS_P2;PMS_P1;PMS_P2;Temp;Humidity;BMP_temperature;BMP_pressure;BME280_temperature;BME280_humidity;BME280_pressure;Samples;Min_cycle;Max_cycle;Signal;HPM_P1;HPM_P2
2021/12/15 00:01:30;;;;;;;;;;;;;;;8.14;100.00;102951.19;5085006;28;19911;-74
2021/12/15 00:03:56;;;;;;;;;;;;;;;8.14;100.00;102947.75;5087563;28;21474;-74
2021/12/15 00:06:21;;;;;;;;;;;;;;;8.16;100.00;102943.59;5087128;28;19931;-73
2021/12/15 00:08:48;;;;;;;;;;;;;;;8.13;100.00;102943.38;5086536;28;19992;-74
2021/12/15 00:11:14;;;;;;;;;;;;;;;8.13;100.00;102948.50;5084480;28;19920;-74
2021/12/15 00:13:41;;;;;;;;;;;;;;;8.14;100.00;102937.50;5086822;28;19923;-74
2021/12/15 00:16:08;;;;;;;;;;;;;;;8.22;100.00;102944.03;5084056;28;19927;-74
2021/12/15 00:18:34;;;;;;;;;;;;;;;8.14;100.00;102938.38;5087420;28;19916;-74
2021/12/15 00:20:59;;;;;;;;;;;;;;;8.15;100.00;102945.28;5087268;28;19965;-74
2021/12/15 00:23:24;;;;;;;;;;;;;;;8.16;100.00;102941.94;5083071;28;20279;-74
2021/12/15 00:25:50;;;;;;;;;;;;;;;8.14;100.00;102940.94;5085553;28;19923;-74
2021/12/15 00:28:16;;;;;;;;;;;;;;;8.13;100.00;102930.56;5082657;28;19923;-74
2021/12/15 00:30:41;;;;;;;;;;;;;;;8.17;100.00;102937.69;5082037;28;20268;-74
2021/12/15 00:33:07;;;;;;;;;;;;;;;8.21;100.00;102934.56;5084387;28;20512;-74
2021/12/15 00:35:33;;;;;;;;;;;;;;;8.25;100.00;102936.53;5084788;28;19996;-74
2021/12/15 00:37:58;;;;;;;;;;;;;;;8.16;100.00;102933.34;5081697;28;19925;-74
2021/12/15 00:40:25;;;;;;;;;;;;;;;8.22;100.00;102931.22;5084389;28;19916;-74
2021/12/15 00:42:50;;;;;;;;;;;;;;;8.20;100.00;102931.13;5087203;28;19918;-73
2021/12/15 00:45:16;;;;;;;;;;;;;;;8.21;100.00;102932.91;5082737;28;19912;-73
2021/12/15 00:47:43;;;;;;;;;;;;;;;8.33;100.00;102930.31;5081033;28;19920;-73
2021/12/15 00:50:09;;;;;;;;;;;;;;;8.19;100.00;102934.47;5081978;28;19967;-73
2021/12/15 00:52:36;;;;;;;;;;;;;;;8.25;100.00;102928.84;5084688;28;19995;-73
2021/12/15 00:55:02;;;;;;;;;;;;;;;8.19;100.00;102929.34;5082678;28;19920;-73
2021/12/15 00:57:27;;;;;;;;;;;;;;;8.19;100.00;102926.78;5081426;28;19916;-73
2021/12/15 00:59:52;;;;;;;;;;;;;;;8.18;100.00;102930.09;5085916;28;20622;-74
2021/12/15 01:02:18;;;;;;;;;;;;;;;8.18;100.00;102931.78;5076597;28;19989;-73
2021/12/15 01:04:43;;;;;;;;;;;;;;;8.17;100.00;102925.75;5082014;28;20365;-74
2021/12/15 01:07:11;;;;;;;;;;;;;;;8.20;100.00;102930.22;5084788;28;20360;-73
2021/12/15 01:09:46;;;;;;;;;;;;;;;8.17;100.00;102932.56;5081356;28;19912;-73
2021/12/15 01:12:22;;;;;;;;;;;;;;;8.20;100.00;102931.13;5082764;28;19912;-73
2021/12/15 01:20:08;;;;;;;;;;;;;;;8.25;100.00;102934.91;5081397;28;20018;-74
2021/12/15 01:22:39;;;;;;;;;;;;;;;8.25;100.00;102934.91;5081809;28;19920;-74
2021/12/15 01:25:07;;;;;;;;;;;;;;;8.30;100.00;102935.19;5085380;28;19912;-74
2021/12/15 01:27:32;;;;;;;;;;;;;;;8.27;100.00;102933.31;5083182;28;19923;-73
2021/12/15 01:29:58;;;;;;;;;;;;;;;8.25;100.00;102940.03;5084447;28;20287;-74
2021/12/15 01:32:23;;;;;;;;;;;;;;;8.26;100.00;102930.66;5080690;28;20042;-74
2021/12/15 01:34:49;;;;;;;;;;;;;;;8.27;100.00;102933.31;5084849;28;19912;-74
2021/12/15 01:37:14;;;;;;;;;;;;;;;8.23;100.00;102935.56;5076766;28;20031;-74
2021/12/15 01:39:40;;;;;;;;;;;;;;;8.38;100.00;102939.25;5083363;28;19923;-74
2021/12/15 01:42:06;;;;;;;;;;;;;;;8.26;100.00;102938.34;5085231;28;19950;-74
2021/12/15 01:47:02;;;;;;;;;;;;;;;8.28;100.00;102942.78;5083815;28;19918;-74
2021/12/15 01:49:27;;;;;;;;;;;;;;;8.29;100.00;102944.56;5081702;28;19959;-74
2021/12/15 01:51:53;;;;;;;;;;;;;;;8.27;100.00;102945.25;5083746;28;20446;-74
2021/12/15 01:54:20;;;;;;;;;;;;;;;8.25;100.00;102942.59;5080359;28;19958;-74
2021/12/15 01:56:46;;;;;;;;;;;;;;;8.23;100.00;102943.25;5085081;28;19916;-74
2021/12/15 01:59:12;;;;;;;;;;;;;;;8.25;100.00;102946.78;5081683;28;19923;-75
2021/12/15 02:01:37;;;;;;;;;;;;;;;8.18;100.00;102947.16;5085756;28;20419;-74
2021/12/15 02:04:03;;;;;;;;;;;;;;;8.22;100.00;102949.16;5082416;28;19920;-74
2021/12/15 02:06:28;;;;;;;;;;;;;;;8.20;100.00;102954.19;5085457;28;20019;-74
2021/12/15 02:08:54;;;;;;;;;;;;;;;8.25;100.00;102951.94;5088165;28;20416;-74
2021/12/15 02:11:19;;;;;;;;;;;;;;;8.24;100.00;102955.28;5085901;28;20283;-74
2021/12/15 02:13:45;;;;;;;;;;;;;;;8.24;100.00;102956.16;5082670;28;19955;-74
2021/12/15 02:16:10;;;;;;;;;;;;;;;8.21;100.00;102961.09;5085356;28;19912;-74
2021/12/15 02:18:37;;;;;;;;;;;;;;;8.32;100.00;102965.31;5085699;28;20310;-74
2021/12/15 02:21:12;;;;;;;;;;;;;;;8.29;100.00;102967.63;5086290;28;19919;-74
2021/12/15 02:23:42;;;;;;;;;;;;;;;8.29;100.00;102959.94;5083098;28;19912;-74
2021/12/15 02:26:14;;;;;;;;;;;;;;;8.24;100.00;102956.16;5084918;28;19918;-74
2021/12/15 02:28:40;;;;;;;;;;;;;;;8.23;100.00;102963.75;5082224;28;19916;-74
2021/12/15 02:31:16;;;;;;;;;;;;;;;8.21;100.00;102962.75;5085366;28;20416;-74
2021/12/15 02:34:06;;;;;;;;;;;;;;;8.24;100.00;102962.97;5085210;28;19916;-74
2021/12/15 02:39:16;;;;;;;;;;;;;;;8.27;100.00;102960.63;5086072;28;19923;-74
2021/12/15 02:41:43;;;;;;;;;;;;;;;8.20;100.00;102963.56;5082210;28;20006;-74
2021/12/15 02:44:10;;;;;;;;;;;;;;;8.22;100.00;102957.75;5085795;28;19915;-74
2021/12/15 02:46:36;;;;;;;;;;;;;;;8.19;100.00;102960.09;5085231;28;19930;-74
2021/12/15 02:49:03;;;;;;;;;;;;;;;8.25;100.00;102954.47;5084798;28;20019;-74
2021/12/15 02:51:28;;;;;;;;;;;;;;;8.20;100.00;102964.44;5087264;28;19916;-74
2021/12/15 02:53:57;;;;;;;;;;;;;;;8.21;100.00;102961.09;5084503;28;19924;-74
2021/12/15 02:56:22;;;;;;;;;;;;;;;8.21;100.00;102962.75;5085685;28;19973;-74
2021/12/15 02:58:56;;;;;;;;;;;;;;;8.21;100.00;102965.31;5086855;28;19912;-74
2021/12/15 03:01:33;;;;;;;;;;;;;;;8.19;100.00;102954.06;5082037;28;19924;-74
2021/12/15 03:06:54;;;;;;;;;;;;;;;8.22;100.00;102954.28;5082695;28;19918;-73
2021/12/15 03:17:31;;;;;;;;;;;;;;;8.28;100.00;102947.03;5085327;28;19972;-73
2021/12/15 03:19:57;;;;;;;;;;;;;;;8.25;100.00;102950.28;5090263;28;19916;-74
2021/12/15 03:22:23;;;;;;;;;;;;;;;8.18;100.00;102952.28;5088526;28;19916;-73
2021/12/15 03:24:48;;;;;;;;;;;;;;;8.25;100.00;102944.22;5090560;28;19916;-73
2021/12/15 03:27:19;;;;;;;;;;;;;;;8.27;100.00;102935.00;5085711;28;19918;-73
2021/12/15 03:37:43;;;;;;;;;;;;;;;8.29;100.00;102942.00;5088851;28;19931;-74
2021/12/15 03:40:09;;;;;;;;;;;;;;;8.27;100.00;102948.72;5089428;28;20446;-73
2021/12/15 03:42:36;;;;;;;;;;;;;;;8.21;100.00;102950.84;5090050;28;20010;-74
2021/12/15 03:45:04;;;;;;;;;;;;;;;8.28;100.00;102954.72;5089902;28;19951;-73
2021/12/15 03:47:32;;;;;;;;;;;;;;;8.21;100.00;102962.75;5088101;28;20003;-73
2021/12/15 03:49:58;;;;;;;;;;;;;;;8.28;100.00;102963.28;5087870;28;20407;-74
2021/12/15 03:52:24;;;;;;;;;;;;;;;8.24;100.00;102968.09;5089790;28;19968;-73
2021/12/15 03:54:49;;;;;;;;;;;;;;;8.31;100.00;102970.28;5088016;28;20367;-74
2021/12/15 03:57:15;;;;;;;;;;;;;;;8.27;100.00;102969.22;5087784;28;19920;-73
2021/12/15 03:59:43;;;;;;;;;;;;;;;8.24;100.00;102970.66;5090876;28;20275;-73
2021/12/15 04:02:09;;;;;;;;;;;;;;;8.32;100.00;102967.88;5088834;28;19920;-74
2021/12/15 04:04:35;;;;;;;;;;;;;;;8.30;100.00;102976.22;5088170;28;19919;-74
2021/12/15 04:07:00;;;;;;;;;;;;;;;8.27;100.00;102974.34;5090302;28;19920;-74
2021/12/15 04:09:25;;;;;;;;;;;;;;;8.23;100.00;102971.44;5086355;28;19973;-74
2021/12/15 04:11:54;;;;;;;;;;;;;;;8.23;100.00;102974.88;5090044;28;19920;-74
2021/12/15 04:14:22;;;;;;;;;;;;;;;8.25;100.00;102975.00;5088393;28;19949;-73
2021/12/15 04:16:59;;;;;;;;;;;;;;;8.24;100.00;102968.09;5089875;28;19931;-73
2021/12/15 04:19:24;;;;;;;;;;;;;;;8.26;100.00;102976.78;5085867;28;20014;-74
2021/12/15 04:21:50;;;;;;;;;;;;;;;8.21;100.00;102975.56;5080497;28;20327;-74
2021/12/15 04:24:16;;;;;;;;;;;;;;;8.22;100.00;102974.78;5087664;28;19969;-74
2021/12/15 04:26:42;;;;;;;;;;;;;;;8.21;100.00;102981.59;5088929;28;19916;-74
2021/12/15 04:29:07;;;;;;;;;;;;;;;8.20;100.00;102977.25;5086129;28;19965;-74
2021/12/15 04:31:37;;;;;;;;;;;;;;;8.17;100.00;102982.13;5084648;28;19912;-74
2021/12/15 04:34:06;;;;;;;;;;;;;;;8.18;100.00;102983.03;5087951;28;19923;-74
2021/12/15 04:36:34;;;;;;;;;;;;;;;8.19;100.00;102980.59;5088679;28;20351;-74
2021/12/15 04:39:00;;;;;;;;;;;;;;;8.17;100.00;102982.13;5089385;28;19912;-74
2021/12/15 04:41:26;;;;;;;;;;;;;;;8.20;100.00;102984.94;5083698;28;19923;-74
2021/12/15 04:43:57;;;;;;;;;;;;;;;8.16;100.00;102982.94;5086220;28;19912;-74
2021/12/15 04:46:27;;;;;;;;;;;;;;;8.17;100.00;102981.25;5086180;28;19926;-74
2021/12/15 04:48:52;;;;;;;;;;;;;;;8.18;100.00;102988.16;5086148;28;20382;-74
2021/12/15 04:51:18;;;;;;;;;;;;;;;8.22;100.00;102985.94;5086816;28;19971;-74
2021/12/15 04:53:43;;;;;;;;;;;;;;;8.27;100.00;102986.25;5085704;28;20286;-73
2021/12/15 04:56:09;;;;;;;;;;;;;;;8.24;100.00;102983.47;5082856;28;19921;-73
2021/12/15 04:58:34;;;;;;;;;;;;;;;8.27;100.00;102988.81;5087205;28;19948;-74
2021/12/15 05:01:01;;;;;;;;;;;;;;;8.27;100.00;102997.41;5088004;28;19935;-73
2021/12/15 05:03:27;;;;;;;;;;;;;;;8.30;100.00;102994.16;5085829;28;19919;-73
2021/12/15 05:05:52;;;;;;;;;;;;;;;8.29;100.00;102993.25;5086942;28;20059;-74
2021/12/15 05:08:18;;;;;;;;;;;;;;;8.29;100.00;103000.06;5086022;28;19924;-74
2021/12/15 05:10:43;;;;;;;;;;;;;;;8.27;100.00;102992.28;5085447;28;19916;-73
2021/12/15 05:13:10;;;;;;;;;;;;;;;8.29;100.00;103000.06;5087261;28;19912;-73
2021/12/15 05:15:35;;;;;;;;;;;;;;;8.32;100.00;103001.19;5085101;28;19911;-74
2021/12/15 05:18:01;;;;;;;;;;;;;;;8.34;100.00;102999.63;5087665;28;19924;-74
2021/12/15 05:20:26;;;;;;;;;;;;;;;8.36;100.00;102999.75;5086657;28;20271;-74
2021/12/15 05:22:52;;;;;;;;;;;;;;;8.38;100.00;103008.47;5085412;28;19973;-74
2021/12/15 05:25:18;;;;;;;;;;;;;;;8.33;100.00;103002.06;5082547;28;19943;-73
2021/12/15 05:27:43;;;;;;;;;;;;;;;8.33;100.00;103004.66;5087255;28;19954;-74
2021/12/15 05:30:10;;;;;;;;;;;;;;;8.36;100.00;103002.31;5087124;28;19912;-74
2021/12/15 05:32:35;;;;;;;;;;;;;;;8.35;100.00;103003.06;5101280;28;19962;-74
2021/12/15 05:35:01;;;;;;;;;;;;;;;8.34;100.00;103007.31;5084193;28;19963;-74
2021/12/15 05:37:27;;;;;;;;;;;;;;;8.34;100.00;103002.19;5086385;28;19970;-73
2021/12/15 05:39:53;;;;;;;;;;;;;;;8.33;100.00;103007.22;5085438;28;20280;-74
2021/12/15 05:42:20;;;;;;;;;;;;;;;8.32;100.00;103002.88;5086113;28;19924;-74
2021/12/15 05:44:45;;;;;;;;;;;;;;;8.31;100.00;103003.63;5087012;28;19912;-74
2021/12/15 05:47:11;;;;;;;;;;;;;;;8.38;100.00;103000.78;5086131;28;19916;-73
2021/12/15 05:49:36;;;;;;;;;;;;;;;8.33;100.00;103010.66;5086957;28;20373;-73
2021/12/15 05:52:02;;;;;;;;;;;;;;;8.38;100.00;103003.34;5086560;28;20355;-74
2021/12/15 05:54:29;;;;;;;;;;;;;;;8.38;100.00;103012.69;5083219;28;19920;-73
2021/12/15 05:56:55;;;;;;;;;;;;;;;8.42;100.00;103009.56;5085034;28;19923;-73
2021/12/15 05:59:20;;;;;;;;;;;;;;;8.36;100.00;103009.13;5085004;28;20632;-74
2021/12/15 06:01:46;;;;;;;;;;;;;;;8.37;100.00;103009.22;5087066;28;19954;-73
2021/12/15 06:04:13;;;;;;;;;;;;;;;8.36;100.00;103012.56;5082269;28;20405;-74
2021/12/15 06:06:38;;;;;;;;;;;;;;;8.46;100.00;103003.88;5082506;28;19935;-74
2021/12/15 06:09:04;;;;;;;;;;;;;;;8.56;100.00;103019.13;5081529;28;19916;-73
2021/12/15 06:11:30;;;;;;;;;;;;;;;8.41;100.00;103018.03;5084891;28;19916;-74
2021/12/15 06:13:55;;;;;;;;;;;;;;;8.42;100.00;103020.69;5083601;28;19920;-74
2021/12/15 06:16:21;;;;;;;;;;;;;;;8.38;100.00;103023.84;5083265;28;19920;-73
2021/12/15 06:18:48;;;;;;;;;;;;;;;8.39;100.00;103017.03;5087475;28;19938;-73
2021/12/15 06:21:13;;;;;;;;;;;;;;;8.38;100.00;103022.97;5085889;28;19925;-73
2021/12/15 06:23:39;;;;;;;;;;;;;;;8.50;100.00;103027.28;5084113;28;20343;-74
2021/12/15 06:26:05;;;;;;;;;;;;;;;8.41;100.00;103026.63;5081856;28;19934;-74
2021/12/15 06:28:31;;;;;;;;;;;;;;;8.41;100.00;103031.75;5082596;28;19916;-73
2021/12/15 06:30:57;;;;;;;;;;;;;;;8.38;100.00;103028.97;5082548;28;19916;-73
2021/12/15 06:33:23;;;;;;;;;;;;;;;8.41;100.00;103038.53;5081167;28;19920;-73
2021/12/15 06:35:57;;;;;;;;;;;;;;;8.46;100.00;103030.41;5077502;28;19920;-74
2021/12/15 06:38:25;;;;;;;;;;;;;;;8.52;100.00;103038.53;5081518;28;20366;-74
2021/12/15 06:40:51;;;;;;;;;;;;;;;8.50;100.00;103029.84;5083481;28;19923;-72
2021/12/15 06:43:17;;;;;;;;;;;;;;;8.47;100.00;103033.84;5084218;28;19920;-73
2021/12/15 06:59:26;;;;;;;;;;;;;;;8.46;100.00;103035.53;5080877;28;19935;-73
2021/12/15 07:01:52;;;;;;;;;;;;;;;8.40;100.00;103037.66;5083092;28;20519;-74
2021/12/15 07:04:18;;;;;;;;;;;;;;;8.42;100.00;103045.44;5078098;28;19916;-74
2021/12/15 07:06:44;;;;;;;;;;;;;;;8.43;100.00;103039.53;5085081;28;19915;-72
2021/12/15 07:09:09;;;;;;;;;;;;;;;8.47;100.00;103050.13;5082939;28;19920;-74
2021/12/15 07:11:35;;;;;;;;;;;;;;;8.47;100.00;103055.25;5083529;28;20049;-73
2021/12/15 07:14:00;;;;;;;;;;;;;;;8.44;100.00;103054.16;5083187;28;19919;-74
2021/12/15 07:16:28;;;;;;;;;;;;;;;8.46;100.00;103057.72;5080852;28;20336;-73
2021/12/15 07:19:05;;;;;;;;;;;;;;;8.44;100.00;103057.59;5082715;28;19959;-74
2021/12/15 07:21:35;;;;;;;;;;;;;;;8.48;100.00;103059.59;5086556;28;20049;-73
2021/12/15 07:24:01;;;;;;;;;;;;;;;8.45;100.00;103067.06;5084194;28;19919;-73
2021/12/15 07:26:27;;;;;;;;;;;;;;;8.46;100.00;103060.28;5083528;28;20354;-74
2021/12/15 07:28:52;;;;;;;;;;;;;;;8.47;100.00;103056.94;5081926;28;19920;-74
2021/12/15 07:31:17;;;;;;;;;;;;;;;8.54;100.00;103061.69;5078356;28;19927;-73
2021/12/15 07:33:43;;;;;;;;;;;;;;;8.54;100.00;103066.84;5082463;28;19926;-73
2021/12/15 07:36:08;;;;;;;;;;;;;;;8.47;100.00;103064.63;5079795;28;19923;-74
2021/12/15 07:38:41;;;;;;;;;;;;;;;8.52;100.00;103061.59;5082079;28;19939;-75
2021/12/15 07:41:07;;;;;;;;;;;;;;;8.53;100.00;103068.50;5081616;28;19912;-74
2021/12/15 07:43:32;;;;;;;;;;;;;;;8.51;100.00;103062.38;5081855;28;19923;-74
2021/12/15 07:46:00;;;;;;;;;;;;;;;8.48;100.00;103066.41;5082192;28;20889;-75
2021/12/15 07:48:26;;;;;;;;;;;;;;;8.52;100.00;103068.41;5083122;28;20014;-75
2021/12/15 07:50:53;;;;;;;;;;;;;;;8.49;100.00;103063.97;5080872;28;19916;-75
2021/12/15 07:53:19;;;;;;;;;;;;;;;8.51;100.00;103071.75;5079899;28;19976;-75
2021/12/15 07:55:45;;;;;;;;;;;;;;;8.52;100.00;103068.41;5083566;28;19912;-75
2021/12/15 07:58:10;;;;;;;;;;;;;;;8.53;100.00;103077.88;5081492;28;19919;-77
2021/12/15 08:00:37;;;;;;;;;;;;;;;8.49;100.00;103076.78;5082519;28;20359;-75
2021/12/15 08:03:02;;;;;;;;;;;;;;;8.50;100.00;103067.41;5083729;28;20027;-76
2021/12/15 08:05:28;;;;;;;;;;;;;;;8.63;100.00;103069.19;5082718;28;19999;-76
2021/12/15 08:07:53;;;;;;;;;;;;;;;8.64;100.00;103073.53;5083646;28;19916;-74
2021/12/15 08:10:19;;;;;;;;;;;;;;;8.68;100.00;103081.53;5084427;28;19939;-75
2021/12/15 08:12:46;;;;;;;;;;;;;;;8.65;100.00;103085.56;5085152;28;20504;-76
2021/12/15 08:15:11;;;;;;;;;;;;;;;8.63;100.00;103082.00;5079382;28;19926;-76
2021/12/15 08:17:37;;;;;;;;;;;;;;;8.56;100.00;103086.69;5080633;28;19924;-75
2021/12/15 08:20:04;;;;;;;;;;;;;;;8.64;100.00;103083.78;5079991;28;19956;-75
2021/12/15 08:22:30;;;;;;;;;;;;;;;8.63;100.00;103088.03;5080891;28;19950;-75
2021/12/15 08:24:55;;;;;;;;;;;;;;;8.62;100.00;103085.34;5082924;28;20347;-75
2021/12/15 08:27:20;;;;;;;;;;;;;;;8.66;100.00;103085.66;5081079;28;21830;-75
2021/12/15 08:29:45;;;;;;;;;;;;;;;8.66;100.00;103085.66;5079917;28;19915;-75
2021/12/15 08:32:11;;;;;;;;;;;;;;;8.68;100.00;103101.19;5080375;28;20005;-75
2021/12/15 08:34:36;;;;;;;;;;;;;;;8.66;100.00;103089.91;5080544;28;19923;-75
2021/12/15 08:37:01;;;;;;;;;;;;;;;8.75;100.00;103090.56;5082205;28;19934;-75
2021/12/15 08:39:27;;;;;;;;;;;;;;;8.73;100.00;103098.13;5083554;28;19951;-75
2021/12/15 08:41:52;;;;;;;;;;;;;;;8.75;100.00;103088.00;5081904;28;19965;-74
2021/12/15 08:44:17;;;;;;;;;;;;;;;8.76;100.00;103094.91;5080246;28;19916;-74
2021/12/15 08:46:45;;;;;;;;;;;;;;;8.84;100.00;103101.47;5080551;28;19927;-75
2021/12/15 08:49:13;;;;;;;;;;;;;;;8.95;100.00;103097.97;5082129;28;19912;-75
2021/12/15 08:51:39;;;;;;;;;;;;;;;8.85;100.00;103096.44;5079005;28;19928;-75
2021/12/15 08:54:06;;;;;;;;;;;;;;;8.83;100.00;103098.00;5083021;28;19916;-75
2021/12/15 08:56:31;;;;;;;;;;;;;;;8.77;100.00;103089.88;5077559;28;19927;-75
2021/12/15 08:58:57;;;;;;;;;;;;;;;8.80;100.00;103100.38;5080827;28;19923;-75
2021/12/15 09:01:23;;;;;;;;;;;;;;;8.85;100.00;103098.09;5078635;28;19916;-74
2021/12/15 09:03:48;;;;;;;;;;;;;;;8.87;100.00;103094.00;5080088;28;19912;-75
2021/12/15 09:06:14;;;;;;;;;;;;;;;8.91;100.00;103095.97;5082109;28;19930;-75
2021/12/15 09:08:41;;;;;;;;;;;;;;;8.90;100.00;103104.47;5081316;28;19926;-75
2021/12/15 09:11:08;;;;;;;;;;;;;;;8.87;100.00;103111.97;5084417;28;19932;-75
2021/12/15 09:13:34;;;;;;;;;;;;;;;8.94;100.00;103106.47;5075392;28;20008;-75
2021/12/15 09:16:01;;;;;;;;;;;;;;;8.93;100.00;103104.69;5078391;28;19920;-75
2021/12/15 09:18:27;;;;;;;;;;;;;;;8.98;100.00;103112.69;5080410;28;19920;-75
2021/12/15 09:20:52;;;;;;;;;;;;;;;9.00;100.00;103113.72;5076836;28;19920;-75
2021/12/15 09:23:18;;;;;;;;;;;;;;;8.99;100.00;103117.94;5079830;28;19912;-76
2021/12/15 09:25:44;;;;;;;;;;;;;;;9.01;100.00;103123.19;5078518;28;20854;-76
2021/12/15 09:28:09;;;;;;;;;;;;;;;9.12;100.00;103127.41;5080606;28;19999;-74
2021/12/15 09:30:35;;;;;;;;;;;;;;;9.06;100.00;103132.09;5079738;28;20006;-75
2021/12/15 09:33:01;;;;;;;;;;;;;;;9.08;100.00;103128.84;5098255;28;19924;-75
2021/12/15 09:35:30;;;;;;;;;;;;;;;9.08;100.00;103125.38;5080245;28;19965;-75
2021/12/15 09:37:55;;;;;;;;;;;;;;;9.13;100.00;103136.88;5083740;28;19916;-74
2021/12/15 09:40:21;;;;;;;;;;;;;;;9.18;100.00;103137.22;5077786;28;19923;-74
2021/12/15 09:42:47;;;;;;;;;;;;;;;9.19;100.00;103131.28;5080365;28;19923;-74
2021/12/15 09:45:42;;;;;;;;;;;;;;;9.17;100.00;103122.59;5078287;28;20023;-74
2021/12/15 10:20:03;;;;;;;;;;;;;;;10.04;100.00;103144.81;5079791;28;19970;-75
2021/12/15 10:22:47;;;;;;;;;;;;;;;10.09;100.00;103142.56;5080879;28;19930;-75
2021/12/15 10:25:12;;;;;;;;;;;;;;;10.12;100.00;103141.06;5080654;28;19920;-74
2021/12/15 10:27:44;;;;;;;;;;;;;;;10.19;100.00;103143.28;5078966;28;19912;-74
2021/12/15 10:30:12;;;;;;;;;;;;;;;10.25;100.00;103141.91;5081442;28;20012;-74
2021/12/15 10:32:39;;;;;;;;;;;;;;;10.30;100.00;103135.41;5083417;28;19915;-76
2021/12/15 10:35:07;;;;;;;;;;;;;;;10.35;100.00;103144.31;5080641;28;19912;-75
2021/12/15 10:37:32;;;;;;;;;;;;;;;10.41;100.00;103135.31;5082185;28;19996;-75
2021/12/15 10:40:12;;;;;;;;;;;;;;;10.41;100.00;103140.44;5082754;28;19916;-76
2021/12/15 10:42:38;;;;;;;;;;;;;;;10.40;100.00;103140.38;5080005;28;19931;-75
2021/12/15 10:45:08;;;;;;;;;;;;;;;10.43;100.00;103138.88;5062746;28;19923;-76
2021/12/15 10:47:41;;;;;;;;;;;;;;;10.39;100.00;103136.00;5081099;28;19926;-75
2021/12/15 10:50:11;;;;;;;;;;;;;;;10.35;100.00;103144.31;5078050;28;20716;-75
2021/12/15 10:52:47;;;;;;;;;;;;;;;10.29;100.00;103149.06;5084707;28;19912;-75
2021/12/15 10:55:13;;;;;;;;;;;;;;;10.33;100.00;103143.31;5080837;28;19982;-75
2021/12/15 10:57:43;;;;;;;;;;;;;;;10.32;100.00;103151.84;5083342;28;20473;-75
2021/12/15 11:00:11;;;;;;;;;;;;;;;10.30;100.00;103153.41;5083852;28;20393;-75
2021/12/15 11:02:37;;;;;;;;;;;;;;;10.26;100.00;103154.00;5087638;28;20283;-75
2021/12/15 11:05:10;;;;;;;;;;;;;;;10.24;100.00;103142.72;5088709;28;19915;-74
2021/12/15 11:07:39;;;;;;;;;;;;;;;10.21;100.00;103144.28;5083253;28;19916;-76
2021/12/15 11:10:34;;;;;;;;;;;;;;;10.29;100.00;103146.47;5088631;28;19920;-77
2021/12/15 11:13:17;;;;;;;;;;;;;;;10.29;100.00;103137.09;5083398;28;20017;-76
2021/12/15 11:15:44;;;;;;;;;;;;;;;10.36;100.00;103138.38;5087759;28;20060;-76
2021/12/15 11:18:12;;;;;;;;;;;;;;;10.38;100.00;103137.69;5090377;28;19966;-76
2021/12/15 11:20:43;;;;;;;;;;;;;;;10.39;100.00;103136.91;5089063;28;19916;-75
2021/12/15 11:23:09;;;;;;;;;;;;;;;10.38;100.00;103132.56;5082336;28;19920;-75
2021/12/15 11:25:44;;;;;;;;;;;;;;;10.42;100.00;103139.66;5085600;28;19926;-75
2021/12/15 11:28:09;;;;;;;;;;;;;;;10.40;100.00;103142.94;5083475;28;19920;-74
2021/12/15 11:30:38;;;;;;;;;;;;;;;10.45;100.00;103146.69;5083624;28;19922;-75
2021/12/15 11:33:09;;;;;;;;;;;;;;;10.51;100.00;103144.53;5086846;28;19916;-75
2021/12/15 11:35:40;;;;;;;;;;;;;;;10.58;100.00;103135.50;5086781;28;19919;-76
2021/12/15 11:38:07;;;;;;;;;;;;;;;10.58;100.00;103133.81;5087019;28;19916;-75
2021/12/15 11:40:35;;;;;;;;;;;;;;;10.55;100.00;103131.03;5084043;28;19958;-75
2021/12/15 11:43:01;;;;;;;;;;;;;;;10.53;100.00;103127.50;5083428;28;19923;-76
2021/12/15 11:45:27;;;;;;;;;;;;;;;10.58;100.00;103127.78;5086332;28;19927;-76
2021/12/15 11:48:08;;;;;;;;;;;;;;;10.54;100.00;103123.25;5087487;28;19962;-76
2021/12/15 11:50:37;;;;;;;;;;;;;;;10.54;100.00;103129.28;5085208;28;19920;-76
2021/12/15 11:53:03;;;;;;;;;;;;;;;10.52;100.00;103128.28;5082523;28;19988;-75
2021/12/15 11:55:32;;;;;;;;;;;;;;;10.53;100.00;103122.34;5084767;28;19940;-76
2021/12/15 11:57:58;;;;;;;;;;;;;;;10.55;100.00;103122.44;5084833;28;19924;-76
2021/12/15 12:00:27;;;;;;;;;;;;;;;10.58;100.00;103133.81;5083759;28;19957;-76
2021/12/15 12:02:54;;;;;;;;;;;;;;;10.60;100.00;103136.50;5080822;28;19919;-76
2021/12/15 12:05:20;;;;;;;;;;;;;;;10.58;100.00;103132.94;5080280;28;19920;-76
2021/12/15 12:07:47;;;;;;;;;;;;;;;10.62;100.00;103127.22;5081753;28;20518;-76
2021/12/15 12:10:20;;;;;;;;;;;;;;;10.59;100.00;103135.59;5086321;28;19920;-76
2021/12/15 12:12:53;;;;;;;;;;;;;;;10.61;100.00;103131.44;5079707;28;20568;-76
2021/12/15 12:15:20;;;;;;;;;;;;;;;10.63;100.00;103118.69;5082157;28;19932;-76
2021/12/15 12:17:47;;;;;;;;;;;;;;;10.72;100.00;103119.25;5083025;28;20378;-75
2021/12/15 12:20:15;;;;;;;;;;;;;;;10.76;100.00;103110.06;5083098;28;20014;-76
2021/12/15 12:22:43;;;;;;;;;;;;;;;10.73;99.08;103113.31;5083512;28;19911;-76
2021/12/15 12:25:14;;;;;;;;;;;;;;;10.74;100.00;103118.59;5081980;28;19959;-76
2021/12/15 12:27:40;;;;;;;;;;;;;;;10.81;100.00;103117.28;5082981;28;19999;-76
2021/12/15 12:30:09;;;;;;;;;;;;;;;10.74;100.00;103118.59;5076116;28;20370;-77
2021/12/15 12:32:35;;;;;;;;;;;;;;;10.73;100.00;103113.31;5083980;28;20392;-77
2021/12/15 12:35:00;;;;;;;;;;;;;;;10.70;100.00;103114.03;5082881;28;19920;-75
2021/12/15 12:37:25;;;;;;;;;;;;;;;10.82;100.00;103107.88;5080075;28;19923;-75
2021/12/15 12:39:56;;;;;;;;;;;;;;;10.81;100.00;103106.09;5078652;28;19951;-75
2021/12/15 12:42:47;;;;;;;;;;;;;;;10.78;99.54;103099.06;5080524;28;19916;-74
2021/12/15 12:45:29;;;;;;;;;;;;;;;10.84;99.31;103106.28;5082746;28;20400;-75
2021/12/15 12:57:53;;;;;;;;;;;;;;;10.95;100.00;103098.44;5068530;28;20590;-75
2021/12/15 12:59:29;;;;;;;;;;;;;;;11.11;99.05;103087.41;5085800;28;20317;-75
2021/12/15 13:01:54;;;;;;;;;;;;;;;11.14;96.40;103091.84;5083810;28;19930;-75
2021/12/15 13:04:20;;;;;;;;;;;;;;;11.15;98.28;103094.50;5076119;28;19920;-75
2021/12/15 13:06:45;;;;;;;;;;;;;;;11.17;97.68;103092.03;5083104;28;19919;-75
2021/12/15 13:09:15;;;;;;;;;;;;;;;11.20;98.81;103087.94;5081549;28;20342;-75
2021/12/15 13:11:43;;;;;;;;;;;;;;;11.13;97.59;103079.78;5082360;28;19974;-74
2021/12/15 13:14:11;;;;;;;;;;;;;;;11.09;97.43;103090.66;5079617;28;19919;-74
2021/12/15 13:16:47;;;;;;;;;;;;;;;11.05;96.30;103094.75;5081586;28;19957;-74
2021/12/15 13:19:16;;;;;;;;;;;;;;;11.06;95.33;103098.22;5077892;28;19915;-74
2021/12/15 13:22:03;;;;;;;;;;;;;;;11.08;96.45;103094.94;5081455;28;20290;-73
2021/12/15 13:30:06;;;;;;;;;;;;;;;11.01;94.96;103092.78;5035246;28;19928;-74
2021/12/15 13:32:37;;;;;;;;;;;;;;;10.99;96.47;103094.38;5038307;28;19921;-74
2021/12/15 13:35:02;;;;;;;;;;;;;;;10.98;95.79;103103.78;5037783;28;20367;-75
2021/12/15 13:37:49;;;;;;;;;;;;;;;10.93;94.98;103102.59;5026953;28;19935;-75
2021/12/15 13:40:14;;;;;;;;;;;;;;;10.92;95.22;103097.34;5036559;28;20007;-75
2021/12/15 13:43:01;;;;;;;;;;;;;;;10.86;96.11;103096.97;5070939;28;19933;-74
2021/12/15 13:45:31;;;;;;;;;;;;;;;10.82;94.51;103102.72;5040781;28;19983;-74
2021/12/15 13:47:57;;;;;;;;;;;;;;;10.78;94.60;103103.31;5036429;22;19940;-79
2021/12/15 13:50:25;;;;;;;;;;;;;;;10.78;96.99;103105.91;5021875;28;19929;-75
2021/12/15 13:52:55;;;;;;;;;;;;;;;10.77;96.91;103106.69;5020414;28;19925;-75
2021/12/15 13:55:34;;;;;;;;;;;;;;;10.78;96.97;103100.75;5021240;28;19917;-76
2021/12/15 13:58:00;;;;;;;;;;;;;;;10.73;95.95;103106.47;5023246;28;19925;-75
2021/12/15 14:00:30;;;;;;;;;;;;;;;10.75;97.18;103114.31;5016639;28;19917;-75
2021/12/15 14:03:07;;;;;;;;;;;;;;;10.74;97.96;103102.25;5018790;28;20012;-76
2021/12/15 14:05:37;;;;;;;;;;;;;;;10.72;98.01;103104.72;5016704;28;21498;-74
2021/12/15 14:08:05;;;;;;;;;;;;;;;10.69;97.93;103107.09;5018831;28;20291;-75